Portada
METAR-TAF:

METAR-TAF

Aeroports :

Pattaya-Rayong, Tailàndia

latitud: 12-38N, longitud: 101-21E, altitud: 3 m

Observació

L'informe es va fer fa 32 minuts, a les 08:00 UTC
Vent 9 kt del Nord-Est, variant entre Nord i Est
Temperatura 31°C
Humitat 52%
Pressió 1010 hPa
Visibilitat 10 km o més
Escasses núvols a una alçada de 2000 ft

METAR: VTBU 030800Z 05009KT 010V100 9999 FEW020 31/20 Q1010 NOSIG

Hora: 15:32 (08:32 UTC)

Pronòstic

L'informe es va fer fa 3 hores i 32 minuts, a les 05:00 UTC
Pronòstic vàlid del 03 a les 06 UTC al 04 a les 06 UTC
Vent 10 kt del Nord/Nord-Est
Visibilitat 10 km o més
Escasses núvols a una alçada de 2000 ft

TAF: VTBU 030500Z 0306/0406 03010KT 9999 FEW020

Observacions i pronòstics meteorològics de més de 4000 aeroports (METAR i TAF).

Les estacions disponibles són els punts grocs i vermells al mapa.

Posi el ratolí al punt desitjat per veure el nom de l'estació.

Feu clic per veure les observacions i els pronòstics meteorològics.

Per canviar el mapa: feu clic els botons verds amb una creu de color negre per apropar; al botó verd amb un guió per allunyar la imatge; o en les fletxes verdes per a mapes adjacents.


METAR-TAF: